Time;durP1;ratioP1;P1;durP2;ratioP2;P2;SDS_P1;SDS_P2;PMS_P1;PMS_P2;Temp;Humidity;BMP_temperature;BMP_pressure;BME280_temperature;BME280_humidity;BME280_pressure;Samples;Min_cycle;Max_cycle;Signal;HPM_P1;HPM_P2
2022/10/30 00:01:35;;;;;;;12.68;4.43;;;;;;;21.24;48.55;99916.06;5002372;28;20046;-60
2022/10/30 00:04:01;;;;;;;21.73;4.88;;;;;;;21.21;48.78;99914.56;5014967;28;20112;-61
2022/10/30 00:06:28;;;;;;;12.95;4.70;;;;;;;21.20;48.57;99915.56;5014386;28;20050;-61
2022/10/30 00:08:54;;;;;;;10.90;4.82;;;;;;;21.18;48.53;99918.38;5014699;28;20046;-61
2022/10/30 00:11:21;;;;;;;12.63;4.50;;;;;;;21.17;48.70;99915.84;5014615;28;20052;-60
2022/10/30 00:13:48;;;;;;;13.30;4.70;;;;;;;21.14;48.57;99914.31;5014323;28;20081;-61
2022/10/30 00:16:15;;;;;;;13.48;4.90;;;;;;;21.12;48.71;99915.47;5014111;28;20402;-60
2022/10/30 00:18:42;;;;;;;11.27;4.03;;;;;;;21.08;48.61;99914.91;5014241;28;20529;-61
2022/10/30 00:21:11;;;;;;;13.63;4.18;;;;;;;21.05;48.45;99915.25;5014495;28;20065;-61
2022/10/30 00:23:38;;;;;;;12.35;4.60;;;;;;;21.03;48.52;99918.06;5014360;28;20104;-60
2022/10/30 00:26:06;;;;;;;15.40;4.60;;;;;;;21.02;48.61;99927.09;4996632;28;20096;-61
2022/10/30 00:28:33;;;;;;;31.45;5.15;;;;;;;21.00;48.82;99920.22;5014267;28;20056;-62
2022/10/30 00:31:01;;;;;;;18.90;4.57;;;;;;;20.98;48.81;99927.53;4997038;28;20119;-61
2022/10/30 00:33:27;;;;;;;10.85;4.88;;;;;;;20.95;48.69;99924.19;5014374;28;20054;-60
2022/10/30 00:35:54;;;;;;;14.73;5.35;;;;;;;20.93;48.85;99926.16;4996488;28;20076;-61
2022/10/30 00:38:21;;;;;;;9.95;4.30;;;;;;;20.91;48.72;99920.13;5008141;28;20494;-60
2022/10/30 00:40:47;;;;;;;10.65;3.97;;;;;;;20.90;48.75;99918.41;4999196;28;20050;-61
2022/10/30 00:43:33;;;;;;;9.18;4.63;;;;;;;20.84;48.61;99921.69;5001972;28;20121;-60
2022/10/30 00:46:20;;;;;;;12.90;4.13;;;;;;;20.82;48.61;99921.00;4976706;28;20141;-60
2022/10/30 00:48:51;;;;;;;11.98;4.07;;;;;;;20.84;48.44;99913.66;4980704;28;20046;-62
2022/10/30 00:51:19;;;;;;;9.40;4.60;;;;;;;20.83;48.81;99922.69;5006157;28;20056;-61
2022/10/30 00:53:47;;;;;;;10.73;4.13;;;;;;;20.83;48.76;99920.00;5013995;28;20384;-62
2022/10/30 00:56:16;;;;;;;16.08;4.20;;;;;;;20.80;48.91;99929.19;5013481;28;20101;-61
2022/10/30 00:58:49;;;;;;;10.15;4.05;;;;;;;20.79;48.60;99930.16;5013714;28;20053;-61
2022/10/30 01:01:20;;;;;;;13.88;4.80;;;;;;;20.79;48.74;99929.31;4996556;28;20061;-60
2022/10/30 01:03:49;;;;;;;13.68;4.35;;;;;;;20.79;48.68;99927.47;4996129;28;20056;-60
2022/10/30 01:06:16;;;;;;;11.70;4.28;;;;;;;20.79;48.71;99932.81;4995749;28;20054;-61
2022/10/30 01:08:44;;;;;;;11.18;4.13;;;;;;;20.79;48.66;99929.31;4995925;28;20049;-61
2022/10/30 01:11:11;;;;;;;11.77;4.30;;;;;;;20.78;48.55;99931.16;5013610;28;20085;-60
2022/10/30 01:13:41;;;;;;;14.88;4.35;;;;;;;20.77;48.58;99928.63;4996064;28;20512;-61
2022/10/30 01:16:34;;;;;;;10.95;4.50;;;;;;;20.73;48.71;99932.56;5012974;28;20050;-62
2022/10/30 01:19:15;;;;;;;9.75;3.80;;;;;;;20.77;48.77;99932.16;5013287;28;20045;-60
2022/10/30 01:22:14;;;;;;;9.68;3.83;;;;;;;20.71;48.38;99930.09;5013451;28;20141;-60
2022/10/30 01:24:59;;;;;;;9.10;3.45;;;;;;;20.71;48.23;99930.09;5013092;28;20141;-64
2022/10/30 01:27:47;;;;;;;11.48;4.05;;;;;;;20.69;48.34;99937.41;4989966;28;20125;-62
2022/10/30 01:30:26;;;;;;;15.50;3.80;;;;;;;20.68;48.23;99935.72;4985625;28;20134;-61
2022/10/30 01:33:13;;;;;;;8.70;4.13;;;;;;;20.66;48.17;99941.22;4993070;28;20126;-61
2022/10/30 01:35:47;;;;;;;14.20;3.70;;;;;;;20.66;48.26;99937.69;5000004;28;20132;-62
2022/10/30 01:38:18;;;;;;;20.40;4.95;;;;;;;20.65;48.55;99944.03;5012827;28;20118;-62
2022/10/30 01:40:44;;;;;;;10.65;4.93;;;;;;;20.63;48.44;99938.81;5012685;28;20513;-61
2022/10/30 01:43:11;;;;;;;8.10;3.60;;;;;;;20.61;48.38;99942.66;5012708;28;20140;-60
2022/10/30 01:46:12;;;;;;;8.95;4.05;;;;;;;20.52;48.55;99947.06;5012563;28;20075;-60
2022/10/30 01:48:48;;;;;;;10.73;4.35;;;;;;;20.52;48.50;99941.72;5012859;28;20068;-63
2022/10/30 01:51:14;;;;;;;8.48;3.85;;;;;;;20.51;48.85;99948.88;5012749;28;20045;-60
2022/10/30 01:53:52;;;;;;;13.15;4.47;;;;;;;20.48;48.53;99954.53;5012083;28;20128;-62
2022/10/30 01:56:34;;;;;;;10.27;4.50;;;;;;;20.41;48.62;99951.59;4956305;28;20055;-61
2022/10/30 01:59:29;;;;;;;6.57;3.85;;;;;;;20.36;48.49;99953.03;4973554;28;20046;-59
2022/10/30 02:01:56;;;;;;;13.60;3.90;;;;;;;20.38;48.90;99953.72;4973539;28;20412;-60
2022/10/30 02:04:24;;;;;;;14.07;3.72;;;;;;;20.34;48.86;99950.53;4972177;28;20426;-62
2022/10/30 02:06:50;;;;;;;13.65;4.60;;;;;;;20.31;48.72;99945.47;4973068;28;20047;-60
2022/10/30 02:09:17;;;;;;;9.27;4.22;;;;;;;20.27;49.03;99950.25;4973443;28;20062;-60
2022/10/30 02:11:46;;;;;;;8.35;3.92;;;;;;;20.23;48.86;99948.88;4973645;28;20051;-59
2022/10/30 02:14:17;;;;;;;10.02;3.95;;;;;;;20.21;48.64;99944.63;4956090;28;20050;-61
2022/10/30 02:16:46;;;;;;;11.43;3.67;;;;;;;20.19;48.97;99947.47;4955760;28;20443;-59
2022/10/30 02:19:13;;;;;;;11.05;4.13;;;;;;;20.16;48.85;99945.94;4956092;28;20117;-61
2022/10/30 02:21:39;;;;;;;8.50;4.00;;;;;;;20.14;48.83;99945.22;4955972;28;20657;-60
2022/10/30 02:24:06;;;;;;;10.77;4.35;;;;;;;20.14;49.15;99942.56;4973188;28;20064;-60
2022/10/30 02:26:33;;;;;;;10.50;4.40;;;;;;;20.13;48.86;99940.88;4972798;28;20062;-60
2022/10/30 02:28:59;;;;;;;9.57;3.60;;;;;;;20.14;48.94;99944.38;4973443;28;20050;-59
2022/10/30 02:31:26;;;;;;;11.88;3.92;;;;;;;20.12;48.99;99936.53;4973244;28;20054;-60
2022/10/30 02:33:53;;;;;;;7.90;4.45;;;;;;;20.13;48.82;99934.69;4972842;28;20142;-60
2022/10/30 02:36:19;;;;;;;17.55;4.35;;;;;;;20.14;48.69;99937.22;4972717;28;20051;-61
2022/10/30 02:38:46;;;;;;;12.68;4.68;;;;;;;20.14;49.02;99931.88;4972928;28;20154;-61
2022/10/30 02:41:12;;;;;;;10.32;4.10;;;;;;;20.15;48.64;99940.72;4972750;28;20043;-60
2022/10/30 02:43:39;;;;;;;19.10;4.70;;;;;;;20.14;48.72;99934.53;4972707;28;20582;-62
2022/10/30 02:46:06;;;;;;;9.02;3.80;;;;;;;20.14;48.85;99934.53;4972370;28;20146;-61
2022/10/30 02:48:32;;;;;;;13.55;4.05;;;;;;;20.14;48.69;99931.00;4955459;28;20526;-60
2022/10/30 02:51:00;;;;;;;11.77;4.47;;;;;;;20.12;48.67;99931.19;4972877;28;20046;-60
2022/10/30 02:53:27;;;;;;;11.52;4.53;;;;;;;20.11;48.86;99934.81;4972684;28;20065;-60
2022/10/30 02:55:54;;;;;;;9.30;3.88;;;;;;;20.10;48.63;99930.47;4955202;28;20121;-60
2022/10/30 02:58:20;;;;;;;14.60;4.50;;;;;;;20.08;48.72;99923.59;4955263;28;20047;-60
2022/10/30 03:00:47;;;;;;;10.38;3.95;;;;;;;20.07;49.05;99932.59;4972738;28;20069;-62
2022/10/30 03:03:14;;;;;;;9.00;4.35;;;;;;;20.04;48.75;99929.22;4972792;28;20055;-60
2022/10/30 03:05:45;;;;;;;12.65;3.88;;;;;;;20.02;48.91;99931.19;4971284;28;20050;-61
2022/10/30 03:08:11;;;;;;;9.00;3.83;;;;;;;20.02;48.61;99925.88;4972478;28;20058;-61
2022/10/30 03:10:38;;;;;;;12.27;4.03;;;;;;;20.00;48.85;99930.50;4972528;28;20129;-59
2022/10/30 03:13:04;;;;;;;12.43;4.43;;;;;;;19.99;48.81;99946.66;4972376;28;20615;-59
2022/10/30 03:15:31;;;;;;;13.57;4.40;;;;;;;19.96;48.71;99944.28;4972200;28;20066;-61
2022/10/30 03:17:58;;;;;;;10.18;4.60;;;;;;;19.92;48.83;99933.88;4972464;28;20050;-60
2022/10/30 03:20:25;;;;;;;9.73;4.10;;;;;;;19.91;48.86;99940.19;4972330;28;20047;-59
2022/10/30 03:22:51;;;;;;;6.95;3.65;;;;;;;19.88;48.98;99948.50;4972270;28;20137;-62
2022/10/30 03:25:22;;;;;;;13.10;4.60;;;;;;;19.87;48.89;99948.63;4970720;28;20137;-61
2022/10/30 03:27:49;;;;;;;13.43;4.38;;;;;;;19.84;48.92;99956.94;4972390;28;20043;-61
2022/10/30 03:30:16;;;;;;;7.70;3.92;;;;;;;19.79;48.94;99952.88;4972190;28;20050;-62
2022/10/30 03:32:42;;;;;;;11.48;4.25;;;;;;;19.76;49.09;99955.81;4972153;28;20061;-61
2022/10/30 03:35:09;;;;;;;11.68;4.47;;;;;;;19.73;49.33;99953.44;4971915;28;20054;-61
2022/10/30 03:37:35;;;;;;;9.02;3.97;;;;;;;19.69;49.41;99956.56;4972211;28;20051;-60
2022/10/30 03:40:02;;;;;;;11.57;3.67;;;;;;;19.66;49.46;99952.31;4972115;28;20085;-60
2022/10/30 03:42:28;;;;;;;12.10;4.43;;;;;;;19.62;49.27;99959.78;4972306;28;20522;-60
2022/10/30 03:44:55;;;;;;;7.28;3.83;;;;;;;19.58;49.48;99955.69;4971880;28;20062;-60
2022/10/30 03:47:21;;;;;;;7.90;3.65;;;;;;;19.54;49.75;99954.28;4972299;28;20055;-61
2022/10/30 03:49:48;;;;;;;10.38;4.15;;;;;;;19.51;49.35;99954.59;4972153;28;20388;-61
2022/10/30 03:52:15;;;;;;;16.05;3.90;;;;;;;19.47;49.69;99953.19;4972036;28;20506;-64
2022/10/30 03:54:41;;;;;;;9.88;4.57;;;;;;;19.42;49.85;99948.25;4971750;28;20046;-60
2022/10/30 03:57:08;;;;;;;10.07;3.88;;;;;;;19.38;49.76;99953.03;4971783;28;20058;-60
2022/10/30 03:59:34;;;;;;;10.40;4.03;;;;;;;19.35;49.96;99961.31;4972060;28;20051;-59
2022/10/30 04:02:01;;;;;;;10.70;4.10;;;;;;;19.32;50.01;99960.78;4971976;28;20047;-60
2022/10/30 04:04:27;;;;;;;17.80;4.20;;;;;;;19.29;49.97;99953.91;4971966;28;20061;-60
2022/10/30 04:06:54;;;;;;;10.30;4.57;;;;;;;19.26;49.99;99951.50;4971803;28;20061;-60
2022/10/30 04:09:21;;;;;;;9.88;4.35;;;;;;;19.23;50.00;99952.63;4972003;28;20109;-60
2022/10/30 04:11:47;;;;;;;10.50;4.35;;;;;;;19.21;50.38;99956.41;4972062;28;20059;-60
2022/10/30 04:14:14;;;;;;;11.55;4.32;;;;;;;19.18;50.21;99954.00;4971976;28;20047;-63
2022/10/30 04:16:40;;;;;;;14.13;4.40;;;;;;;19.17;50.48;99952.34;4954440;28;20058;-61
2022/10/30 04:19:07;;;;;;;8.88;4.50;;;;;;;19.14;50.45;99964.94;4974142;28;20422;-61
2022/10/30 04:21:33;;;;;;;10.35;4.55;;;;;;;19.13;50.51;99955.28;4974134;28;20046;-60
2022/10/30 04:24:00;;;;;;;13.60;4.63;;;;;;;19.13;50.28;99965.94;4975271;28;20488;-60
2022/10/30 04:26:27;;;;;;;12.48;3.97;;;;;;;19.13;50.64;99957.09;4975137;28;20643;-62
2022/10/30 04:28:53;;;;;;;10.68;4.45;;;;;;;19.15;50.64;99955.13;5073323;23;20061;-58
2022/10/30 04:31:20;;;;;;;10.48;4.10;;;;;;;19.16;50.67;99948.81;4993673;28;20500;-58
2022/10/30 04:33:46;;;;;;;13.07;4.50;;;;;;;19.18;50.42;99948.69;4994450;28;20085;-59
2022/10/30 04:36:12;;;;;;;12.60;4.75;;;;;;;19.21;50.44;99945.75;4994024;28;20447;-59
2022/10/30 04:38:39;;;;;;;16.50;4.80;;;;;;;19.22;50.53;99955.41;4994475;28;20050;-59
2022/10/30 04:41:05;;;;;;;10.98;4.38;;;;;;;19.23;50.63;99951.75;4994301;28;20058;-64
2022/10/30 04:43:31;;;;;;;14.15;4.60;;;;;;;19.25;50.56;99947.16;4994412;28;20050;-62
2022/10/30 04:45:58;;;;;;;13.25;4.57;;;;;;;19.24;50.52;99954.28;4993989;28;20050;-61
2022/10/30 04:48:24;;;;;;;11.82;4.60;;;;;;;19.24;50.35;99951.63;4994199;28;20046;-61
2022/10/30 04:50:50;;;;;;;12.60;4.32;;;;;;;19.23;50.85;99952.63;4994051;28;20077;-61
2022/10/30 04:53:17;;;;;;;12.40;4.07;;;;;;;19.24;50.43;99948.09;4994268;28;20093;-61
2022/10/30 04:55:44;;;;;;;11.52;4.57;;;;;;;19.23;50.72;99946.44;4993772;28;20534;-62
2022/10/30 04:58:11;;;;;;;8.85;4.25;;;;;;;19.23;50.57;99951.75;4993950;28;20046;-60
2022/10/30 05:00:38;;;;;;;11.55;4.07;;;;;;;19.21;50.60;99946.56;4993890;28;20169;-60
2022/10/30 05:03:04;;;;;;;11.35;4.45;;;;;;;19.20;50.31;99941.34;4993866;28;20092;-62
2022/10/30 05:05:31;;;;;;;11.88;4.15;;;;;;;19.19;50.29;99939.69;4993718;28;20054;-61
2022/10/30 05:07:57;;;;;;;13.52;4.78;;;;;;;19.16;50.71;99951.47;4995441;28;20100;-61
2022/10/30 05:10:24;;;;;;;12.65;4.20;;;;;;;19.12;50.92;99942.91;4993477;28;20077;-63
2022/10/30 05:12:54;;;;;;;14.80;4.53;;;;;;;19.11;50.88;99940.38;4993723;28;20077;-62
2022/10/30 05:15:21;;;;;;;11.88;4.60;;;;;;;19.07;51.00;99945.16;4993508;28;20610;-60
2022/10/30 05:17:52;;;;;;;13.98;4.55;;;;;;;19.05;50.98;99941.78;4993612;28;20054;-62
2022/10/30 05:20:19;;;;;;;9.52;4.80;;;;;;;19.06;50.82;99945.31;4993732;28;20050;-60
2022/10/30 05:22:53;;;;;;;12.80;4.60;;;;;;;19.02;50.82;99944.69;4976189;28;20447;-61
2022/10/30 05:25:19;;;;;;;11.77;4.65;;;;;;;19.04;50.88;99942.72;4976104;28;20054;-60
2022/10/30 05:27:45;;;;;;;12.82;4.53;;;;;;;19.02;51.02;99937.53;4993537;28;20062;-62
2022/10/30 05:30:12;;;;;;;13.38;4.45;;;;;;;19.02;50.89;99947.34;4992599;28;20078;-62
2022/10/30 05:32:38;;;;;;;12.18;4.78;;;;;;;18.99;50.98;99939.66;4993475;28;20380;-60
2022/10/30 05:35:05;;;;;;;10.80;4.45;;;;;;;18.97;51.30;99937.09;4993072;28;20060;-61
2022/10/30 05:37:32;;;;;;;8.48;4.30;;;;;;;18.98;51.38;99929.94;4993444;28;20105;-59
2022/10/30 05:39:58;;;;;;;7.93;4.18;;;;;;;18.97;51.45;99939.78;4993648;28;20076;-62
2022/10/30 05:42:24;;;;;;;11.73;4.47;;;;;;;18.97;51.13;99931.78;4953396;23;20134;-62
2022/10/30 05:44:51;;;;;;;9.82;4.20;;;;;;;18.95;51.46;99928.38;4971863;28;20132;-68
2022/10/30 05:47:27;;;;;;;13.23;5.05;;;;;;;18.94;51.18;99926.72;4974367;28;20082;-63
2022/10/30 05:49:53;;;;;;;13.70;4.40;;;;;;;18.94;51.31;99941.84;4973967;28;20043;-60
2022/10/30 05:52:20;;;;;;;10.30;4.55;;;;;;;18.92;51.62;99934.00;4973560;28;20047;-60
2022/10/30 05:54:46;;;;;;;10.68;4.35;;;;;;;18.92;51.62;99941.16;4973514;28;20050;-59
2022/10/30 05:57:13;;;;;;;19.67;5.90;;;;;;;18.88;51.33;99943.28;4973415;28;20058;-61
2022/10/30 05:59:39;;;;;;;18.58;5.05;;;;;;;18.86;51.34;99945.22;4973618;28;20046;-60
2022/10/30 06:02:06;;;;;;;14.75;4.85;;;;;;;18.83;51.63;99942.81;4973782;28;20047;-61
2022/10/30 06:04:32;;;;;;;11.80;4.70;;;;;;;18.80;51.53;99937.78;4973560;28;20534;-59
2022/10/30 06:06:59;;;;;;;12.55;4.95;;;;;;;18.77;51.85;99935.38;4973090;28;20685;-59
2022/10/30 06:09:26;;;;;;;10.80;4.57;;;;;;;18.73;51.62;99940.16;4973420;28;20051;-61
2022/10/30 06:11:53;;;;;;;12.80;5.82;;;;;;;18.71;51.82;99944.75;4973176;28;20065;-59
2022/10/30 06:14:19;;;;;;;14.68;4.63;;;;;;;18.68;51.78;99945.88;4973664;28;20054;-60
2022/10/30 06:16:46;;;;;;;16.77;4.93;;;;;;;18.67;51.90;99959.34;4973111;28;20050;-62
2022/10/30 06:19:13;;;;;;;11.60;4.38;;;;;;;18.64;52.00;99952.47;4973282;28;20047;-59
2022/10/30 06:21:44;;;;;;;12.43;4.85;;;;;;;18.63;52.22;99948.09;4973155;28;20050;-59
2022/10/30 06:24:11;;;;;;;13.38;4.22;;;;;;;18.61;52.17;99947.38;4970133;28;20491;-59
2022/10/30 06:26:38;;;;;;;14.20;5.30;;;;;;;18.60;52.27;99951.03;4971971;28;20049;-58
2022/10/30 06:29:05;;;;;;;13.10;5.25;;;;;;;18.57;52.12;99954.81;4973216;28;20094;-61
2022/10/30 06:31:31;;;;;;;10.55;4.63;;;;;;;18.57;52.33;99953.97;4971973;28;20081;-60
2022/10/30 06:33:58;;;;;;;11.63;4.45;;;;;;;18.56;52.24;99952.28;4973171;28;20065;-60
2022/10/30 06:36:25;;;;;;;12.55;4.72;;;;;;;18.55;52.45;99958.59;4972752;28;20057;-61
2022/10/30 06:38:51;;;;;;;8.65;4.43;;;;;;;18.54;52.41;99960.41;4972878;28;20042;-60
2022/10/30 06:41:18;;;;;;;18.63;4.65;;;;;;;18.51;52.71;99958.03;4972377;28;20567;-59
2022/10/30 06:43:44;;;;;;;15.25;5.10;;;;;;;18.50;52.65;99961.66;4973043;28;20045;-60
2022/10/30 06:46:11;;;;;;;9.35;4.85;;;;;;;18.47;52.34;99959.28;4972232;28;20039;-59
2022/10/30 06:48:38;;;;;;;14.95;4.85;;;;;;;18.45;52.40;99962.06;4973105;28;20038;-60
2022/10/30 06:51:04;;;;;;;7.97;5.03;;;;;;;18.42;52.60;99969.47;4972704;28;20059;-60
2022/10/30 06:53:31;;;;;;;11.35;5.15;;;;;;;18.40;52.86;99968.78;4973040;28;20088;-58
2022/10/30 06:56:00;;;;;;;9.77;5.47;;;;;;;18.36;52.71;99977.03;4972498;28;20053;-59
2022/10/30 06:58:27;;;;;;;11.02;4.97;;;;;;;18.34;52.63;99973.66;4972823;28;20070;-61
2022/10/30 07:00:54;;;;;;;15.07;5.60;;;;;;;18.32;52.92;99974.78;4972436;28;20046;-59
2022/10/30 07:03:21;;;;;;;14.10;5.15;;;;;;;18.30;53.02;99980.25;4972644;28;20494;-61
2022/10/30 07:05:48;;;;;;;11.40;4.57;;;;;;;18.27;53.08;99977.84;4972362;28;20142;-59
2022/10/30 07:08:15;;;;;;;13.68;5.13;;;;;;;18.26;53.51;99975.28;4964037;28;20051;-59
2022/10/30 07:10:41;;;;;;;8.20;4.25;;;;;;;18.25;53.40;99985.13;4972631;28;20058;-59
2022/10/30 07:13:08;;;;;;;14.05;5.85;;;;;;;18.24;53.50;99986.09;4972238;28;20050;-59
2022/10/30 07:15:35;;;;;;;9.75;5.22;;;;;;;18.24;53.56;99975.41;4972422;28;20535;-59
2022/10/30 07:18:03;;;;;;;14.32;5.18;;;;;;;18.23;53.76;99971.94;4972980;28;20142;-59
2022/10/30 07:20:32;;;;;;;17.35;5.82;;;;;;;18.22;53.74;99974.72;4971034;28;20078;-60
2022/10/30 07:22:59;;;;;;;12.38;5.28;;;;;;;18.23;53.79;99979.06;4971747;28;20141;-60
2022/10/30 07:25:26;;;;;;;11.77;5.13;;;;;;;18.23;53.86;99982.59;4972051;28;20063;-61
2022/10/30 07:27:54;;;;;;;15.00;5.35;;;;;;;18.25;53.83;99984.28;4971477;28;20063;-60
2022/10/30 07:30:24;;;;;;;15.60;5.57;;;;;;;18.25;54.17;99982.47;4972377;28;20459;-59
2022/10/30 07:32:56;;;;;;;12.93;5.70;;;;;;;18.27;54.36;99983.16;4961977;28;20049;-59
2022/10/30 07:35:23;;;;;;;14.40;5.57;;;;;;;18.30;54.04;99988.22;4952828;28;20150;-59
2022/10/30 07:37:50;;;;;;;11.18;5.57;;;;;;;18.32;54.42;99988.09;4953405;28;20055;-61
2022/10/30 07:40:17;;;;;;;11.95;5.22;;;;;;;18.32;54.08;99986.28;4953279;28;20086;-59
2022/10/30 07:42:44;;;;;;;12.85;5.40;;;;;;;18.34;54.00;99987.00;4951560;29;20111;-59
2022/10/30 07:45:10;;;;;;;10.00;4.50;;;;;;;18.36;54.20;99993.03;4952771;28;20150;-61
2022/10/30 07:47:41;;;;;;;16.60;5.60;;;;;;;18.36;54.46;99990.34;4952289;28;20146;-60
2022/10/30 07:50:09;;;;;;;12.90;5.70;;;;;;;18.40;54.34;99995.44;4952571;28;20472;-59
2022/10/30 07:52:36;;;;;;;12.27;5.30;;;;;;;18.40;53.99;99998.94;4952837;28;20054;-60
2022/10/30 07:55:03;;;;;;;14.48;5.15;;;;;;;18.41;54.23;100005.97;4956391;28;20055;-59
2022/10/30 07:57:41;;;;;;;13.55;5.55;;;;;;;18.39;54.43;100002.56;4956493;28;20061;-59
2022/10/30 08:00:10;;;;;;;15.18;4.85;;;;;;;18.45;54.35;100009.19;4956923;28;20495;-62
2022/10/30 08:02:37;;;;;;;11.32;5.10;;;;;;;18.47;54.13;100009.94;4956440;28;20047;-59
2022/10/30 08:05:05;;;;;;;12.35;5.95;;;;;;;18.48;54.26;100014.28;4956444;28;20055;-60
2022/10/30 08:07:33;;;;;;;10.73;5.65;;;;;;;18.48;54.10;100008.94;4955326;29;20047;-60
2022/10/30 08:09:59;;;;;;;17.08;6.07;;;;;;;18.50;54.04;100009.63;4956336;28;20091;-59
2022/10/30 08:12:26;;;;;;;16.23;6.22;;;;;;;18.50;54.11;100009.63;4956267;28;20085;-60
2022/10/30 08:14:53;;;;;;;9.80;5.63;;;;;;;18.52;54.46;100014.84;4956109;28;20062;-59
2022/10/30 08:17:20;;;;;;;13.60;5.75;;;;;;;18.53;54.50;100009.38;4956182;28;20979;-59
2022/10/30 08:19:47;;;;;;;17.88;6.45;;;;;;;18.54;54.26;100007.56;4956324;28;20055;-59
2022/10/30 08:22:13;;;;;;;12.32;5.82;;;;;;;18.55;54.35;100002.09;4956082;28;20601;-59
2022/10/30 08:24:40;;;;;;;11.98;5.65;;;;;;;18.56;54.49;100009.13;4956138;28;20419;-59
2022/10/30 08:27:07;;;;;;;13.20;6.05;;;;;;;18.57;54.54;100010.81;4955734;28;20492;-62
2022/10/30 08:29:33;;;;;;;13.35;5.72;;;;;;;18.58;54.44;100004.50;4956198;28;20059;-59
2022/10/30 08:32:00;;;;;;;8.88;5.38;;;;;;;18.60;54.24;100004.34;4956126;28;20061;-59
2022/10/30 08:34:27;;;;;;;15.13;5.60;;;;;;;18.59;54.24;99992.88;4955818;28;20086;-59
2022/10/30 08:36:53;;;;;;;11.80;5.78;;;;;;;18.61;54.40;99993.56;4955339;28;20074;-59
2022/10/30 08:39:20;;;;;;;13.82;6.25;;;;;;;18.65;54.76;99990.63;4955778;28;20094;-59
2022/10/30 08:41:47;;;;;;;16.73;5.93;;;;;;;18.67;54.54;99994.84;4955415;29;20118;-60
2022/10/30 08:44:13;;;;;;;11.00;5.97;;;;;;;18.69;55.09;99981.41;4956137;28;20430;-67
2022/10/30 08:46:40;;;;;;;18.20;6.30;;;;;;;18.73;54.87;99985.47;4955468;28;20131;-60
2022/10/30 08:49:06;;;;;;;18.98;6.05;;;;;;;18.78;54.82;99985.06;4955559;28;20142;-59
2022/10/30 08:51:34;;;;;;;15.77;6.10;;;;;;;18.81;54.85;99984.78;4955649;28;20090;-60
2022/10/30 08:54:00;;;;;;;9.02;5.40;;;;;;;18.85;54.62;99987.06;4957030;29;20133;-61
2022/10/30 08:56:27;;;;;;;12.70;5.70;;;;;;;18.89;54.95;99984.97;4955377;28;20055;-59
2022/10/30 08:58:54;;;;;;;12.40;5.72;;;;;;;18.93;54.39;99982.84;4955393;28;20047;-60
2022/10/30 09:01:20;;;;;;;12.70;5.68;;;;;;;18.97;54.65;99984.28;4955363;28;20074;-62
2022/10/30 09:03:47;;;;;;;12.15;6.20;;;;;;;19.01;55.00;99980.34;4954230;28;20519;-59
2022/10/30 09:06:13;;;;;;;19.38;6.20;;;;;;;19.07;54.95;99979.84;4954426;28;20547;-59
2022/10/30 09:08:40;;;;;;;16.80;6.45;;;;;;;19.12;55.02;99982.09;4955364;28;20114;-60
2022/10/30 09:11:07;;;;;;;16.88;6.32;;;;;;;19.16;54.77;99972.81;4955328;29;20051;-61
2022/10/30 09:13:33;;;;;;;12.73;6.00;;;;;;;19.22;54.63;99974.09;4955282;28;20082;-62
2022/10/30 09:16:01;;;;;;;12.88;5.88;;;;;;;19.26;54.92;99978.19;4954676;28;20134;-59
2022/10/30 09:18:27;;;;;;;16.75;5.53;;;;;;;19.33;54.88;99975.78;4953910;29;20051;-60
2022/10/30 09:20:54;;;;;;;8.82;5.18;;;;;;;19.37;54.84;99972.69;4954878;28;20051;-62
2022/10/30 09:23:20;;;;;;;12.80;5.60;;;;;;;19.46;55.18;99975.50;4955177;28;20062;-60
2022/10/30 09:25:47;;;;;;;11.68;6.07;;;;;;;19.52;54.87;99975.78;4954666;28;20894;-59
2022/10/30 09:28:14;;;;;;;13.00;5.93;;;;;;;19.59;55.06;99973.41;4954792;28;20152;-62
2022/10/30 09:30:40;;;;;;;13.68;6.25;;;;;;;19.66;54.95;99976.34;4954691;28;20057;-60
2022/10/30 09:33:08;;;;;;;12.13;5.50;;;;;;;19.73;54.97;99974.81;4953731;28;20055;-59
2022/10/30 09:35:35;;;;;;;11.77;5.22;;;;;;;19.82;55.21;99966.94;4953124;28;20051;-61
2022/10/30 09:38:02;;;;;;;12.75;6.53;;;;;;;19.89;54.89;99976.88;4951995;29;20413;-63
2022/10/30 09:41:02;;;;;;;16.13;5.80;;;;;;;19.96;54.72;99979.00;4953424;28;20134;-59
2022/10/30 09:44:06;;;;;;;16.23;5.55;;;;;;;20.08;54.85;99974.34;4954569;29;20070;-60
2022/10/30 09:46:35;;;;;;;10.40;5.38;;;;;;;20.23;54.70;99978.28;4953786;29;20047;-62
2022/10/30 09:49:37;;;;;;;11.45;5.40;;;;;;;20.30;54.21;99975.84;4954416;28;20051;-61
2022/10/30 09:52:18;;;;;;;10.65;5.25;;;;;;;20.46;54.27;99979.72;4923088;28;20339;-60
2022/10/30 09:55:04;;;;;;;12.27;5.32;;;;;;;20.51;54.55;99978.31;4954445;28;20141;-64
2022/10/30 09:57:52;;;;;;;18.45;5.90;;;;;;;20.60;54.15;99979.25;4954464;28;20052;-59
2022/10/30 10:00:21;;;;;;;11.77;5.47;;;;;;;20.73;54.00;99962.00;4954684;28;20046;-59
2022/10/30 10:03:15;;;;;;;9.60;5.25;;;;;;;20.78;54.05;99973.94;4954251;28;20047;-61
2022/10/30 10:05:51;;;;;;;13.75;5.57;;;;;;;20.88;54.04;99963.22;4954253;28;20059;-62
2022/10/30 10:08:36;;;;;;;11.30;4.80;;;;;;;20.97;54.18;99966.81;4953900;28;20057;-60
2022/10/30 10:11:12;;;;;;;18.02;6.07;;;;;;;21.11;53.95;99968.16;4954256;28;20142;-59
2022/10/30 10:14:07;;;;;;;11.57;5.03;;;;;;;21.21;53.87;99968.09;4952928;29;20055;-60
2022/10/30 10:16:38;;;;;;;12.60;5.25;;;;;;;21.36;53.82;99965.72;4926721;28;20547;-60
2022/10/30 10:19:20;;;;;;;11.02;5.13;;;;;;;21.47;53.85;99972.69;4954081;28;20055;-60
2022/10/30 10:22:00;;;;;;;10.98;5.53;;;;;;;21.62;53.51;99970.31;4953914;28;20102;-63
2022/10/30 10:24:31;;;;;;;11.25;5.45;;;;;;;21.79;54.17;99967.78;4954066;28;20094;-62
2022/10/30 10:27:22;;;;;;;13.13;5.07;;;;;;;21.90;54.31;99975.56;4953472;28;20087;-60
2022/10/30 10:29:57;;;;;;;9.85;5.13;;;;;;;22.10;54.22;99967.31;5008684;23;20117;-62
2022/10/30 10:32:29;;;;;;;16.02;5.35;;;;;;;22.25;53.52;99960.34;4953833;28;20067;-62
2022/10/30 10:35:23;;;;;;;14.55;5.75;;;;;;;22.37;53.00;99960.94;4953363;28;20460;-61
2022/10/30 10:37:56;;;;;;;11.38;5.10;;;;;;;22.57;53.21;99958.03;4953805;29;20082;-61
2022/10/30 10:40:41;;;;;;;;;;;;;;;22.68;53.21;99959.59;4954323;28;20055;-60
2022/10/30 10:43:36;;;;;;;15.52;4.82;;;;;;;22.87;53.29;99952.25;4953591;29;19929;-61
2022/10/30 10:46:21;;;;;;;12.48;5.22;;;;;;;23.09;53.22;99958.00;4953366;28;20492;-62
2022/10/30 10:48:53;;;;;;;14.50;5.55;;;;;;;23.26;52.47;99954.38;4953556;28;20490;-63
2022/10/30 10:51:29;;;;;;;13.32;5.30;;;;;;;23.47;52.37;99945.00;4953577;29;20093;-65
2022/10/30 10:54:01;;;;;;;15.55;5.13;;;;;;;23.74;52.22;99939.47;4952198;29;20055;-63
2022/10/30 10:56:33;;;;;;;7.80;4.30;;;;;;;24.00;51.79;99954.53;4953444;28;20051;-62
2022/10/30 10:59:17;;;;;;;11.20;4.50;;;;;;;24.28;51.41;99957.69;4953265;28;20519;-61
2022/10/30 11:02:04;;;;;;;11.93;4.60;;;;;;;24.61;51.54;99959.44;4966497;28;20086;-61
2022/10/30 11:04:34;;;;;;;14.15;5.15;;;;;;;24.95;51.28;99958.28;4962396;28;20145;-62
2022/10/30 11:07:16;;;;;;;12.75;4.45;;;;;;;25.23;49.84;99965.84;4972548;28;20050;-62
2022/10/30 11:09:43;;;;;;;12.45;4.63;;;;;;;25.50;49.33;99971.69;4972542;28;20066;-63
2022/10/30 11:12:10;;;;;;;18.13;4.45;;;;;;;25.70;49.08;99957.75;4972614;28;20062;-61
2022/10/30 11:14:37;;;;;;;11.77;5.20;;;;;;;25.91;49.18;99958.06;4972307;28;20054;-63
2022/10/30 11:17:03;;;;;;;9.65;4.60;;;;;;;26.16;49.69;99955.94;4972162;28;20062;-61
2022/10/30 11:19:31;;;;;;;11.05;4.60;;;;;;;26.48;49.31;99958.50;4972617;28;20102;-61
2022/10/30 11:21:58;;;;;;;11.30;4.68;;;;;;;26.86;49.19;99952.94;4972272;28;20054;-62
2022/10/30 11:24:26;;;;;;;13.07;4.15;;;;;;;27.31;47.90;99949.25;4972385;28;20055;-61
2022/10/30 11:26:55;;;;;;;12.73;3.97;;;;;;;27.80;47.88;99938.66;4972339;28;20055;-62
2022/10/30 11:29:26;;;;;;;8.32;4.28;;;;;;;28.33;47.59;99946.31;4975045;28;20058;-62
2022/10/30 11:32:17;;;;;;;8.57;4.45;;;;;;;28.91;46.57;99946.13;4976600;28;20062;-61
2022/10/30 11:34:43;;;;;;;7.22;4.20;;;;;;;29.48;45.91;99940.38;4976312;28;20074;-61
2022/10/30 11:37:29;;;;;;;7.32;3.85;;;;;;;30.00;44.31;99940.59;4976095;28;20411;-62
2022/10/30 11:40:11;;;;;;;9.52;4.15;;;;;;;30.56;42.33;99937.50;4976115;28;20055;-61